sensor_id;sensor_type;location;lat;lon;timestamp;temperature;humidity
15355;DHT22;7777;52.254;9.618;2023-05-07T00:00:39;12.10;99.90
15355;DHT22;7777;52.254;9.618;2023-05-07T00:03:08;12.10;99.90
15355;DHT22;7777;52.254;9.618;2023-05-07T00:05:33;12.00;99.90
15355;DHT22;7777;52.254;9.618;2023-05-07T00:07:59;12.00;99.90
15355;DHT22;7777;52.254;9.618;2023-05-07T00:10:25;12.00;99.90
15355;DHT22;7777;52.254;9.618;2023-05-07T00:12:51;11.90;99.90
15355;DHT22;7777;52.254;9.618;2023-05-07T00:15:17;11.90;99.90
15355;DHT22;7777;52.254;9.618;2023-05-07T00:17:42;11.90;99.90
15355;DHT22;7777;52.254;9.618;2023-05-07T00:20:08;11.90;99.90
15355;DHT22;7777;52.254;9.618;2023-05-07T00:22:34;11.80;99.90
15355;DHT22;7777;52.254;9.618;2023-05-07T00:25:00;11.80;99.90
15355;DHT22;7777;52.254;9.618;2023-05-07T00:27:26;11.80;99.90
15355;DHT22;7777;52.254;9.618;2023-05-07T00:29:52;11.80;99.90
15355;DHT22;7777;52.254;9.618;2023-05-07T00:32:17;11.80;99.90
15355;DHT22;7777;52.254;9.618;2023-05-07T00:34:43;11.80;99.90
15355;DHT22;7777;52.254;9.618;2023-05-07T00:37:09;11.70;99.90
15355;DHT22;7777;52.254;9.618;2023-05-07T00:39:35;11.70;99.90
15355;DHT22;7777;52.254;9.618;2023-05-07T00:42:01;11.70;99.90
15355;DHT22;7777;52.254;9.618;2023-05-07T00:44:28;11.70;99.90
15355;DHT22;7777;52.254;9.618;2023-05-07T00:46:56;11.70;99.90
15355;DHT22;7777;52.254;9.618;2023-05-07T00:49:26;11.70;99.90
15355;DHT22;7777;52.254;9.618;2023-05-07T00:52:01;11.70;99.90
15355;DHT22;7777;52.254;9.618;2023-05-07T00:54:27;11.70;99.90
15355;DHT22;7777;52.254;9.618;2023-05-07T00:56:54;11.70;99.90
15355;DHT22;7777;52.254;9.618;2023-05-07T00:59:20;11.60;99.90
15355;DHT22;7777;52.254;9.618;2023-05-07T01:01:46;11.50;99.90
15355;DHT22;7777;52.254;9.618;2023-05-07T01:04:12;11.60;99.90
15355;DHT22;7777;52.254;9.618;2023-05-07T01:06:38;11.60;99.90
15355;DHT22;7777;52.254;9.618;2023-05-07T01:09:04;11.60;99.90
15355;DHT22;7777;52.254;9.618;2023-05-07T01:11:30;11.50;99.90
15355;DHT22;7777;52.254;9.618;2023-05-07T01:14:17;11.50;99.90
15355;DHT22;7777;52.254;9.618;2023-05-07T01:16:44;11.50;99.90
15355;DHT22;7777;52.254;9.618;2023-05-07T01:19:11;11.50;99.90
15355;DHT22;7777;52.254;9.618;2023-05-07T01:21:45;11.50;99.90
15355;DHT22;7777;52.254;9.618;2023-05-07T01:24:14;11.50;99.90
15355;DHT22;7777;52.254;9.618;2023-05-07T01:26:40;11.50;99.90
15355;DHT22;7777;52.254;9.618;2023-05-07T01:29:08;11.50;99.90
15355;DHT22;7777;52.254;9.618;2023-05-07T01:31:34;11.50;99.90
15355;DHT22;7777;52.254;9.618;2023-05-07T01:34:01;11.40;99.90
15355;DHT22;7777;52.254;9.618;2023-05-07T01:36:29;11.40;99.90
15355;DHT22;7777;52.254;9.618;2023-05-07T01:38:56;11.40;99.90
15355;DHT22;7777;52.254;9.618;2023-05-07T01:41:23;11.40;99.90
15355;DHT22;7777;52.254;9.618;2023-05-07T01:43:50;11.40;99.90
15355;DHT22;7777;52.254;9.618;2023-05-07T01:46:18;11.40;99.90
15355;DHT22;7777;52.254;9.618;2023-05-07T01:48:47;11.40;99.90
15355;DHT22;7777;52.254;9.618;2023-05-07T01:51:16;11.40;99.90
15355;DHT22;7777;52.254;9.618;2023-05-07T01:53:42;11.40;99.90
15355;DHT22;7777;52.254;9.618;2023-05-07T01:56:13;11.30;99.90
15355;DHT22;7777;52.254;9.618;2023-05-07T01:58:41;11.40;99.90
15355;DHT22;7777;52.254;9.618;2023-05-07T02:01:07;11.30;99.90
15355;DHT22;7777;52.254;9.618;2023-05-07T02:03:32;11.30;99.90
15355;DHT22;7777;52.254;9.618;2023-05-07T02:05:58;11.40;99.90
15355;DHT22;7777;52.254;9.618;2023-05-07T02:08:24;11.20;99.90
15355;DHT22;7777;52.254;9.618;2023-05-07T02:10:50;11.20;99.90
15355;DHT22;7777;52.254;9.618;2023-05-07T02:13:16;11.20;99.90
15355;DHT22;7777;52.254;9.618;2023-05-07T02:15:42;11.20;99.90
15355;DHT22;7777;52.254;9.618;2023-05-07T02:18:09;11.20;99.90
15355;DHT22;7777;52.254;9.618;2023-05-07T02:20:35;11.30;99.90
15355;DHT22;7777;52.254;9.618;2023-05-07T02:23:01;11.20;99.90
15355;DHT22;7777;52.254;9.618;2023-05-07T02:25:27;11.30;99.90
15355;DHT22;7777;52.254;9.618;2023-05-07T02:27:53;11.20;99.90
15355;DHT22;7777;52.254;9.618;2023-05-07T02:30:18;11.20;99.90
15355;DHT22;7777;52.254;9.618;2023-05-07T02:32:46;11.10;99.90
15355;DHT22;7777;52.254;9.618;2023-05-07T02:35:12;11.10;99.90
15355;DHT22;7777;52.254;9.618;2023-05-07T02:37:38;11.10;99.90
15355;DHT22;7777;52.254;9.618;2023-05-07T02:40:04;11.10;99.90
15355;DHT22;7777;52.254;9.618;2023-05-07T02:42:33;11.10;99.90
15355;DHT22;7777;52.254;9.618;2023-05-07T02:45:01;11.10;99.90
15355;DHT22;7777;52.254;9.618;2023-05-07T02:47:27;11.10;99.90
15355;DHT22;7777;52.254;9.618;2023-05-07T02:49:54;11.10;99.90
15355;DHT22;7777;52.254;9.618;2023-05-07T02:52:21;11.00;99.90
15355;DHT22;7777;52.254;9.618;2023-05-07T02:54:48;11.00;99.90
15355;DHT22;7777;52.254;9.618;2023-05-07T02:57:14;11.00;99.90
15355;DHT22;7777;52.254;9.618;2023-05-07T02:59:41;11.00;99.90
15355;DHT22;7777;52.254;9.618;2023-05-07T03:02:09;11.10;99.90
15355;DHT22;7777;52.254;9.618;2023-05-07T03:04:35;11.00;99.90
15355;DHT22;7777;52.254;9.618;2023-05-07T03:07:01;11.00;99.90
15355;DHT22;7777;52.254;9.618;2023-05-07T03:09:27;11.00;99.90
15355;DHT22;7777;52.254;9.618;2023-05-07T03:11:56;11.00;99.90
15355;DHT22;7777;52.254;9.618;2023-05-07T03:14:22;11.00;99.90
15355;DHT22;7777;52.254;9.618;2023-05-07T03:16:49;11.00;99.90
15355;DHT22;7777;52.254;9.618;2023-05-07T03:19:15;11.00;99.90
15355;DHT22;7777;52.254;9.618;2023-05-07T03:21:41;11.00;99.90
15355;DHT22;7777;52.254;9.618;2023-05-07T03:24:06;11.00;99.90
15355;DHT22;7777;52.254;9.618;2023-05-07T03:26:32;11.00;99.90
15355;DHT22;7777;52.254;9.618;2023-05-07T03:28:58;11.00;99.90
15355;DHT22;7777;52.254;9.618;2023-05-07T03:31:24;11.00;99.90
15355;DHT22;7777;52.254;9.618;2023-05-07T03:33:55;11.00;99.90
15355;DHT22;7777;52.254;9.618;2023-05-07T03:36:22;11.00;99.90
15355;DHT22;7777;52.254;9.618;2023-05-07T03:38:48;11.00;99.90
15355;DHT22;7777;52.254;9.618;2023-05-07T03:41:15;11.00;99.90
15355;DHT22;7777;52.254;9.618;2023-05-07T03:43:41;11.00;99.90
15355;DHT22;7777;52.254;9.618;2023-05-07T03:46:07;11.00;99.90
15355;DHT22;7777;52.254;9.618;2023-05-07T03:48:33;11.00;99.90
15355;DHT22;7777;52.254;9.618;2023-05-07T03:50:59;11.00;99.90
15355;DHT22;7777;52.254;9.618;2023-05-07T03:53:25;11.00;99.90
15355;DHT22;7777;52.254;9.618;2023-05-07T03:55:51;10.90;99.90
15355;DHT22;7777;52.254;9.618;2023-05-07T03:58:17;10.90;99.90
15355;DHT22;7777;52.254;9.618;2023-05-07T04:00:42;10.90;99.90
15355;DHT22;7777;52.254;9.618;2023-05-07T04:03:08;10.90;99.90
15355;DHT22;7777;52.254;9.618;2023-05-07T04:05:34;10.90;99.90
15355;DHT22;7777;52.254;9.618;2023-05-07T04:08:00;11.00;99.90
15355;DHT22;7777;52.254;9.618;2023-05-07T04:10:26;10.90;99.90
15355;DHT22;7777;52.254;9.618;2023-05-07T04:12:53;10.90;99.90
15355;DHT22;7777;52.254;9.618;2023-05-07T04:15:19;10.90;99.90
15355;DHT22;7777;52.254;9.618;2023-05-07T04:17:45;10.90;99.90
15355;DHT22;7777;52.254;9.618;2023-05-07T04:20:15;10.90;99.90
15355;DHT22;7777;52.254;9.618;2023-05-07T04:22:43;10.90;99.90
15355;DHT22;7777;52.254;9.618;2023-05-07T04:25:09;10.90;99.90
15355;DHT22;7777;52.254;9.618;2023-05-07T04:27:36;10.90;99.90
15355;DHT22;7777;52.254;9.618;2023-05-07T04:30:03;10.90;99.90
15355;DHT22;7777;52.254;9.618;2023-05-07T04:32:29;10.90;99.90
15355;DHT22;7777;52.254;9.618;2023-05-07T04:34:56;10.90;99.90
15355;DHT22;7777;52.254;9.618;2023-05-07T04:37:25;10.90;99.90
15355;DHT22;7777;52.254;9.618;2023-05-07T04:39:51;11.00;99.90
15355;DHT22;7777;52.254;9.618;2023-05-07T04:42:17;11.00;99.90
15355;DHT22;7777;52.254;9.618;2023-05-07T04:44:44;11.00;99.90
15355;DHT22;7777;52.254;9.618;2023-05-07T04:47:11;11.00;99.90
15355;DHT22;7777;52.254;9.618;2023-05-07T04:49:38;10.90;99.90
15355;DHT22;7777;52.254;9.618;2023-05-07T04:52:25;10.90;99.90
15355;DHT22;7777;52.254;9.618;2023-05-07T04:54:51;10.90;99.90
15355;DHT22;7777;52.254;9.618;2023-05-07T04:57:16;10.90;99.90
15355;DHT22;7777;52.254;9.618;2023-05-07T04:59:43;10.90;99.90
15355;DHT22;7777;52.254;9.618;2023-05-07T05:02:16;10.90;99.90
15355;DHT22;7777;52.254;9.618;2023-05-07T05:04:43;10.80;99.90
15355;DHT22;7777;52.254;9.618;2023-05-07T05:07:13;10.80;99.90
15355;DHT22;7777;52.254;9.618;2023-05-07T05:09:44;10.90;99.90
15355;DHT22;7777;52.254;9.618;2023-05-07T05:12:10;10.90;99.90
15355;DHT22;7777;52.254;9.618;2023-05-07T05:14:36;10.80;99.90
15355;DHT22;7777;52.254;9.618;2023-05-07T05:17:02;10.90;99.90
15355;DHT22;7777;52.254;9.618;2023-05-07T05:19:28;10.80;99.90
15355;DHT22;7777;52.254;9.618;2023-05-07T05:21:54;10.90;99.90
15355;DHT22;7777;52.254;9.618;2023-05-07T05:24:20;10.90;99.90
15355;DHT22;7777;52.254;9.618;2023-05-07T05:26:49;10.80;99.90
15355;DHT22;7777;52.254;9.618;2023-05-07T05:29:15;10.80;99.90
15355;DHT22;7777;52.254;9.618;2023-05-07T05:31:42;10.80;99.90
15355;DHT22;7777;52.254;9.618;2023-05-07T05:34:09;10.90;99.90
15355;DHT22;7777;52.254;9.618;2023-05-07T05:36:35;10.80;99.90
15355;DHT22;7777;52.254;9.618;2023-05-07T05:39:03;10.80;99.90
15355;DHT22;7777;52.254;9.618;2023-05-07T05:41:30;10.80;99.90
15355;DHT22;7777;52.254;9.618;2023-05-07T05:43:56;10.80;99.90
15355;DHT22;7777;52.254;9.618;2023-05-07T05:46:22;10.80;99.90
15355;DHT22;7777;52.254;9.618;2023-05-07T05:48:50;10.80;99.90
15355;DHT22;7777;52.254;9.618;2023-05-07T05:51:18;10.80;99.90
15355;DHT22;7777;52.254;9.618;2023-05-07T05:54:05;10.80;99.90
15355;DHT22;7777;52.254;9.618;2023-05-07T05:56:31;10.80;99.90
15355;DHT22;7777;52.254;9.618;2023-05-07T05:58:57;10.80;99.90
15355;DHT22;7777;52.254;9.618;2023-05-07T06:01:31;10.80;99.90
15355;DHT22;7777;52.254;9.618;2023-05-07T06:03:59;10.80;99.90
15355;DHT22;7777;52.254;9.618;2023-05-07T06:06:28;10.80;99.90
15355;DHT22;7777;52.254;9.618;2023-05-07T06:08:54;10.80;99.90
15355;DHT22;7777;52.254;9.618;2023-05-07T06:11:20;10.80;99.90
15355;DHT22;7777;52.254;9.618;2023-05-07T06:13:46;10.80;99.90
15355;DHT22;7777;52.254;9.618;2023-05-07T06:16:11;10.80;99.90
15355;DHT22;7777;52.254;9.618;2023-05-07T06:18:37;10.80;99.90
15355;DHT22;7777;52.254;9.618;2023-05-07T06:21:03;10.90;99.90
15355;DHT22;7777;52.254;9.618;2023-05-07T06:23:29;10.90;99.90
15355;DHT22;7777;52.254;9.618;2023-05-07T06:26:01;10.80;99.90
15355;DHT22;7777;52.254;9.618;2023-05-07T06:28:34;10.80;99.90
15355;DHT22;7777;52.254;9.618;2023-05-07T06:31:18;10.80;99.90
15355;DHT22;7777;52.254;9.618;2023-05-07T06:33:47;10.80;99.90
15355;DHT22;7777;52.254;9.618;2023-05-07T06:36:24;10.80;99.90
15355;DHT22;7777;52.254;9.618;2023-05-07T06:38:50;10.90;99.90
15355;DHT22;7777;52.254;9.618;2023-05-07T06:41:16;10.90;99.90
15355;DHT22;7777;52.254;9.618;2023-05-07T06:43:44;10.90;99.90
15355;DHT22;7777;52.254;9.618;2023-05-07T06:46:12;10.90;99.90
15355;DHT22;7777;52.254;9.618;2023-05-07T06:48:38;10.90;99.90
15355;DHT22;7777;52.254;9.618;2023-05-07T06:51:11;11.00;99.90
15355;DHT22;7777;52.254;9.618;2023-05-07T06:53:37;11.00;99.90
15355;DHT22;7777;52.254;9.618;2023-05-07T06:56:03;11.00;99.90
15355;DHT22;7777;52.254;9.618;2023-05-07T06:58:32;11.10;99.90
15355;DHT22;7777;52.254;9.618;2023-05-07T07:01:05;11.10;99.90
15355;DHT22;7777;52.254;9.618;2023-05-07T07:03:32;11.20;99.90
15355;DHT22;7777;52.254;9.618;2023-05-07T07:05:58;11.10;99.90
15355;DHT22;7777;52.254;9.618;2023-05-07T07:08:28;11.20;99.90
15355;DHT22;7777;52.254;9.618;2023-05-07T07:11:00;11.20;99.90
15355;DHT22;7777;52.254;9.618;2023-05-07T07:13:41;11.20;99.90
15355;DHT22;7777;52.254;9.618;2023-05-07T07:16:13;11.20;99.90
15355;DHT22;7777;52.254;9.618;2023-05-07T07:18:42;11.20;99.90
15355;DHT22;7777;52.254;9.618;2023-05-07T07:21:16;11.30;99.90
15355;DHT22;7777;52.254;9.618;2023-05-07T07:23:44;11.30;99.90
15355;DHT22;7777;52.254;9.618;2023-05-07T07:26:12;11.30;99.90
15355;DHT22;7777;52.254;9.618;2023-05-07T07:28:46;11.30;99.90
15355;DHT22;7777;52.254;9.618;2023-05-07T07:31:20;11.30;99.90
15355;DHT22;7777;52.254;9.618;2023-05-07T07:33:56;11.40;99.90
15355;DHT22;7777;52.254;9.618;2023-05-07T07:36:22;11.40;99.90
15355;DHT22;7777;52.254;9.618;2023-05-07T07:38:49;11.40;99.90
15355;DHT22;7777;52.254;9.618;2023-05-07T07:41:19;11.50;99.90
15355;DHT22;7777;52.254;9.618;2023-05-07T07:43:45;11.40;99.90
15355;DHT22;7777;52.254;9.618;2023-05-07T07:46:14;11.50;99.90
15355;DHT22;7777;52.254;9.618;2023-05-07T07:48:56;11.40;99.90
15355;DHT22;7777;52.254;9.618;2023-05-07T07:51:28;11.50;99.90
15355;DHT22;7777;52.254;9.618;2023-05-07T07:53:54;11.50;99.90
15355;DHT22;7777;52.254;9.618;2023-05-07T07:56:26;11.50;99.90
15355;DHT22;7777;52.254;9.618;2023-05-07T07:58:55;11.50;99.90
15355;DHT22;7777;52.254;9.618;2023-05-07T08:01:21;11.50;99.90
15355;DHT22;7777;52.254;9.618;2023-05-07T08:04:01;11.50;99.90
15355;DHT22;7777;52.254;9.618;2023-05-07T08:06:32;11.50;99.90
15355;DHT22;7777;52.254;9.618;2023-05-07T08:09:10;11.60;99.90
15355;DHT22;7777;52.254;9.618;2023-05-07T08:11:39;11.60;99.90
15355;DHT22;7777;52.254;9.618;2023-05-07T08:14:28;11.60;99.90
15355;DHT22;7777;52.254;9.618;2023-05-07T08:17:51;11.70;99.90
15355;DHT22;7777;52.254;9.618;2023-05-07T08:20:46;11.70;99.90
15355;DHT22;7777;52.254;9.618;2023-05-07T08:23:26;11.70;99.90
15355;DHT22;7777;52.254;9.618;2023-05-07T08:26:00;11.80;99.90
15355;DHT22;7777;52.254;9.618;2023-05-07T08:28:43;11.80;99.90
15355;DHT22;7777;52.254;9.618;2023-05-07T08:31:50;11.80;99.90
15355;DHT22;7777;52.254;9.618;2023-05-07T08:38:23;11.80;99.90
15355;DHT22;7777;52.254;9.618;2023-05-07T08:40:56;11.90;99.90
15355;DHT22;7777;52.254;9.618;2023-05-07T08:43:37;11.90;99.90
15355;DHT22;7777;52.254;9.618;2023-05-07T08:46:19;12.00;99.90
15355;DHT22;7777;52.254;9.618;2023-05-07T08:48:52;12.00;99.90
15355;DHT22;7777;52.254;9.618;2023-05-07T08:51:21;12.00;99.90
15355;DHT22;7777;52.254;9.618;2023-05-07T08:53:49;12.00;99.90
15355;DHT22;7777;52.254;9.618;2023-05-07T08:56:30;12.00;99.90
15355;DHT22;7777;52.254;9.618;2023-05-07T08:59:02;12.00;99.90
15355;DHT22;7777;52.254;9.618;2023-05-07T09:01:33;12.10;99.90
15355;DHT22;7777;52.254;9.618;2023-05-07T09:04:15;12.10;99.90
15355;DHT22;7777;52.254;9.618;2023-05-07T09:10:57;12.10;99.90
15355;DHT22;7777;52.254;9.618;2023-05-07T09:13:24;12.10;99.90
15355;DHT22;7777;52.254;9.618;2023-05-07T09:15:55;12.20;99.90
15355;DHT22;7777;52.254;9.618;2023-05-07T09:18:46;12.20;99.90
15355;DHT22;7777;52.254;9.618;2023-05-07T09:21:16;12.20;99.90
15355;DHT22;7777;52.254;9.618;2023-05-07T09:23:53;12.20;99.90
15355;DHT22;7777;52.254;9.618;2023-05-07T09:26:53;12.20;99.90
15355;DHT22;7777;52.254;9.618;2023-05-07T09:29:27;12.20;99.90
15355;DHT22;7777;52.254;9.618;2023-05-07T09:31:57;12.30;99.90
15355;DHT22;7777;52.254;9.618;2023-05-07T09:34:26;12.30;99.90
15355;DHT22;7777;52.254;9.618;2023-05-07T09:36:56;12.30;99.90
15355;DHT22;7777;52.254;9.618;2023-05-07T09:39:47;12.30;99.90
15355;DHT22;7777;52.254;9.618;2023-05-07T09:42:25;12.40;99.90
15355;DHT22;7777;52.254;9.618;2023-05-07T09:44:52;12.40;99.90
15355;DHT22;7777;52.254;9.618;2023-05-07T09:47:23;12.40;99.90
15355;DHT22;7777;52.254;9.618;2023-05-07T09:49:56;12.40;99.90
15355;DHT22;7777;52.254;9.618;2023-05-07T09:52:31;12.50;99.90
15355;DHT22;7777;52.254;9.618;2023-05-07T09:55:03;12.50;99.90
15355;DHT22;7777;52.254;9.618;2023-05-07T09:57:36;12.60;99.90
15355;DHT22;7777;52.254;9.618;2023-05-07T10:00:05;12.60;99.90
15355;DHT22;7777;52.254;9.618;2023-05-07T10:02:37;12.60;99.90
15355;DHT22;7777;52.254;9.618;2023-05-07T10:09:02;12.70;99.90
15355;DHT22;7777;52.254;9.618;2023-05-07T10:11:37;12.80;99.90
15355;DHT22;7777;52.254;9.618;2023-05-07T10:14:12;12.80;99.90
15355;DHT22;7777;52.254;9.618;2023-05-07T10:16:42;12.80;99.90
15355;DHT22;7777;52.254;9.618;2023-05-07T10:19:11;12.80;99.90
15355;DHT22;7777;52.254;9.618;2023-05-07T10:22:01;12.90;99.90
15355;DHT22;7777;52.254;9.618;2023-05-07T10:24:35;12.90;99.90
15355;DHT22;7777;52.254;9.618;2023-05-07T10:27:05;12.90;99.90
15355;DHT22;7777;52.254;9.618;2023-05-07T10:29:54;12.90;99.90
15355;DHT22;7777;52.254;9.618;2023-05-07T10:35:03;12.90;99.90
15355;DHT22;7777;52.254;9.618;2023-05-07T10:37:34;13.00;99.90
15355;DHT22;7777;52.254;9.618;2023-05-07T10:40:01;13.00;99.90
15355;DHT22;7777;52.254;9.618;2023-05-07T10:42:35;13.00;99.90
15355;DHT22;7777;52.254;9.618;2023-05-07T10:45:14;13.10;99.90
15355;DHT22;7777;52.254;9.618;2023-05-07T10:51:20;13.10;99.90
15355;DHT22;7777;52.254;9.618;2023-05-07T10:56:37;13.10;99.90
15355;DHT22;7777;52.254;9.618;2023-05-07T11:02:20;13.20;99.90
15355;DHT22;7777;52.254;9.618;2023-05-07T11:05:33;13.40;99.90
15355;DHT22;7777;52.254;9.618;2023-05-07T11:34:08;14.00;99.90
15355;DHT22;7777;52.254;9.618;2023-05-07T11:36:39;14.10;99.90
15355;DHT22;7777;52.254;9.618;2023-05-07T11:39:23;14.10;99.90
15355;DHT22;7777;52.254;9.618;2023-05-07T11:41:56;14.10;99.90
15355;DHT22;7777;52.254;9.618;2023-05-07T11:44:22;14.20;99.90
15355;DHT22;7777;52.254;9.618;2023-05-07T11:47:00;14.20;99.90
15355;DHT22;7777;52.254;9.618;2023-05-07T11:49:34;14.30;99.90
15355;DHT22;7777;52.254;9.618;2023-05-07T11:52:00;14.30;99.90
15355;DHT22;7777;52.254;9.618;2023-05-07T11:54:37;14.30;99.90
15355;DHT22;7777;52.254;9.618;2023-05-07T11:57:03;14.40;99.90
15355;DHT22;7777;52.254;9.618;2023-05-07T12:02:51;14.40;99.90
15355;DHT22;7777;52.254;9.618;2023-05-07T12:05:39;14.40;99.90
15355;DHT22;7777;52.254;9.618;2023-05-07T12:08:40;14.50;99.90
15355;DHT22;7777;52.254;9.618;2023-05-07T12:11:13;14.50;99.90
15355;DHT22;7777;52.254;9.618;2023-05-07T12:14:00;14.50;99.90
15355;DHT22;7777;52.254;9.618;2023-05-07T12:16:28;14.40;99.90
15355;DHT22;7777;52.254;9.618;2023-05-07T12:19:13;14.50;99.90
15355;DHT22;7777;52.254;9.618;2023-05-07T12:21:42;14.40;99.90
15355;DHT22;7777;52.254;9.618;2023-05-07T12:24:11;14.50;99.90
15355;DHT22;7777;52.254;9.618;2023-05-07T12:26:40;14.40;99.90
15355;DHT22;7777;52.254;9.618;2023-05-07T12:29:07;14.40;99.90
15355;DHT22;7777;52.254;9.618;2023-05-07T12:31:33;14.50;99.90
15355;DHT22;7777;52.254;9.618;2023-05-07T12:34:02;14.50;99.90
15355;DHT22;7777;52.254;9.618;2023-05-07T12:36:40;14.50;99.90
15355;DHT22;7777;52.254;9.618;2023-05-07T12:39:07;14.60;99.90
15355;DHT22;7777;52.254;9.618;2023-05-07T12:42:02;14.60;99.90
15355;DHT22;7777;52.254;9.618;2023-05-07T12:45:11;14.70;99.90
15355;DHT22;7777;52.254;9.618;2023-05-07T12:47:38;14.70;99.90
15355;DHT22;7777;52.254;9.618;2023-05-07T12:50:16;14.80;99.90
15355;DHT22;7777;52.254;9.618;2023-05-07T12:55:43;15.10;99.90
15355;DHT22;7777;52.254;9.618;2023-05-07T13:00:53;15.40;99.90
15355;DHT22;7777;52.254;9.618;2023-05-07T13:03:29;15.50;99.90
15355;DHT22;7777;52.254;9.618;2023-05-07T13:06:02;15.50;99.90
15355;DHT22;7777;52.254;9.618;2023-05-07T13:08:37;15.50;99.90
15355;DHT22;7777;52.254;9.618;2023-05-07T13:11:10;15.60;99.90
15355;DHT22;7777;52.254;9.618;2023-05-07T13:13:38;15.60;99.90
15355;DHT22;7777;52.254;9.618;2023-05-07T13:16:07;15.60;99.90
15355;DHT22;7777;52.254;9.618;2023-05-07T13:18:38;15.50;99.90
15355;DHT22;7777;52.254;9.618;2023-05-07T13:21:05;15.50;99.90
15355;DHT22;7777;52.254;9.618;2023-05-07T13:23:31;15.50;99.90
15355;DHT22;7777;52.254;9.618;2023-05-07T13:25:57;15.50;99.90
15355;DHT22;7777;52.254;9.618;2023-05-07T13:28:24;15.50;99.90
15355;DHT22;7777;52.254;9.618;2023-05-07T13:30:50;15.50;99.90
15355;DHT22;7777;52.254;9.618;2023-05-07T13:33:20;15.40;99.90
15355;DHT22;7777;52.254;9.618;2023-05-07T13:35:45;15.50;99.90
15355;DHT22;7777;52.254;9.618;2023-05-07T13:38:11;15.50;99.90
15355;DHT22;7777;52.254;9.618;2023-05-07T13:40:43;15.50;99.90
15355;DHT22;7777;52.254;9.618;2023-05-07T13:43:09;15.50;99.90
15355;DHT22;7777;52.254;9.618;2023-05-07T13:45:38;15.50;99.90
15355;DHT22;7777;52.254;9.618;2023-05-07T13:48:04;15.50;99.90
15355;DHT22;7777;52.254;9.618;2023-05-07T13:50:33;15.50;99.90
15355;DHT22;7777;52.254;9.618;2023-05-07T13:53:00;15.50;99.90
15355;DHT22;7777;52.254;9.618;2023-05-07T13:55:29;15.50;99.90
15355;DHT22;7777;52.254;9.618;2023-05-07T13:57:56;15.50;99.90
15355;DHT22;7777;52.254;9.618;2023-05-07T14:00:24;15.60;99.90
15355;DHT22;7777;52.254;9.618;2023-05-07T14:02:59;15.70;99.90
15355;DHT22;7777;52.254;9.618;2023-05-07T14:05:25;15.80;99.90
15355;DHT22;7777;52.254;9.618;2023-05-07T14:07:54;15.80;99.90
15355;DHT22;7777;52.254;9.618;2023-05-07T14:10:20;15.90;99.90
15355;DHT22;7777;52.254;9.618;2023-05-07T14:12:46;16.00;99.90
15355;DHT22;7777;52.254;9.618;2023-05-07T14:15:12;16.00;99.90
15355;DHT22;7777;52.254;9.618;2023-05-07T14:17:39;16.00;99.90
15355;DHT22;7777;52.254;9.618;2023-05-07T14:20:05;16.00;99.90
15355;DHT22;7777;52.254;9.618;2023-05-07T14:22:32;16.10;99.90
15355;DHT22;7777;52.254;9.618;2023-05-07T14:24:58;16.00;99.90
15355;DHT22;7777;52.254;9.618;2023-05-07T14:27:23;16.00;99.90
15355;DHT22;7777;52.254;9.618;2023-05-07T14:29:49;16.00;99.90
15355;DHT22;7777;52.254;9.618;2023-05-07T14:32:17;16.00;99.90
15355;DHT22;7777;52.254;9.618;2023-05-07T14:34:46;16.00;99.90
15355;DHT22;7777;52.254;9.618;2023-05-07T14:37:12;16.00;99.90
15355;DHT22;7777;52.254;9.618;2023-05-07T14:39:41;16.00;99.90
15355;DHT22;7777;52.254;9.618;2023-05-07T14:42:08;16.00;99.90
15355;DHT22;7777;52.254;9.618;2023-05-07T14:44:35;15.90;99.90
15355;DHT22;7777;52.254;9.618;2023-05-07T14:47:01;15.90;99.90
15355;DHT22;7777;52.254;9.618;2023-05-07T14:49:27;15.90;99.90
15355;DHT22;7777;52.254;9.618;2023-05-07T14:51:57;15.80;99.90
15355;DHT22;7777;52.254;9.618;2023-05-07T14:57:13;15.80;99.90
15355;DHT22;7777;52.254;9.618;2023-05-07T14:59:49;15.90;99.90
15355;DHT22;7777;52.254;9.618;2023-05-07T15:02:17;15.90;99.90
15355;DHT22;7777;52.254;9.618;2023-05-07T15:04:43;15.90;99.90
15355;DHT22;7777;52.254;9.618;2023-05-07T15:07:19;15.80;99.90
15355;DHT22;7777;52.254;9.618;2023-05-07T15:09:45;15.80;99.90
15355;DHT22;7777;52.254;9.618;2023-05-07T15:12:11;15.80;99.90
15355;DHT22;7777;52.254;9.618;2023-05-07T15:14:50;15.80;99.90
15355;DHT22;7777;52.254;9.618;2023-05-07T15:17:19;15.70;99.90
15355;DHT22;7777;52.254;9.618;2023-05-07T15:19:45;15.80;99.90
15355;DHT22;7777;52.254;9.618;2023-05-07T15:22:11;15.80;99.90
15355;DHT22;7777;52.254;9.618;2023-05-07T15:24:43;15.80;99.90
15355;DHT22;7777;52.254;9.618;2023-05-07T15:27:09;15.70;99.90
15355;DHT22;7777;52.254;9.618;2023-05-07T15:29:35;15.70;99.90
15355;DHT22;7777;52.254;9.618;2023-05-07T15:32:01;15.60;99.90
15355;DHT22;7777;52.254;9.618;2023-05-07T15:34:27;15.60;99.90
15355;DHT22;7777;52.254;9.618;2023-05-07T15:36:58;15.60;99.90
15355;DHT22;7777;52.254;9.618;2023-05-07T15:39:27;15.50;99.90
15355;DHT22;7777;52.254;9.618;2023-05-07T15:41:56;15.50;99.90
15355;DHT22;7777;52.254;9.618;2023-05-07T15:44:22;15.50;99.90
15355;DHT22;7777;52.254;9.618;2023-05-07T15:47:04;15.40;99.90
15355;DHT22;7777;52.254;9.618;2023-05-07T15:49:30;15.40;99.90
15355;DHT22;7777;52.254;9.618;2023-05-07T15:51:58;15.40;99.90
15355;DHT22;7777;52.254;9.618;2023-05-07T15:54:23;15.30;99.90
15355;DHT22;7777;52.254;9.618;2023-05-07T15:56:52;15.20;99.90
15355;DHT22;7777;52.254;9.618;2023-05-07T15:59:18;15.20;99.90
15355;DHT22;7777;52.254;9.618;2023-05-07T16:04:55;15.20;99.90
15355;DHT22;7777;52.254;9.618;2023-05-07T16:07:39;15.20;99.90
15355;DHT22;7777;52.254;9.618;2023-05-07T16:10:11;15.20;99.90
15355;DHT22;7777;52.254;9.618;2023-05-07T16:12:41;15.10;99.90
15355;DHT22;7777;52.254;9.618;2023-05-07T16:15:33;15.10;99.90
15355;DHT22;7777;52.254;9.618;2023-05-07T16:18:02;15.00;99.90
15355;DHT22;7777;52.254;9.618;2023-05-07T16:20:29;15.00;99.90
15355;DHT22;7777;52.254;9.618;2023-05-07T16:22:55;15.00;99.90
15355;DHT22;7777;52.254;9.618;2023-05-07T16:25:24;14.90;99.90
15355;DHT22;7777;52.254;9.618;2023-05-07T16:27:55;14.90;99.90
15355;DHT22;7777;52.254;9.618;2023-05-07T16:30:27;14.80;99.90
15355;DHT22;7777;52.254;9.618;2023-05-07T16:33:25;14.80;99.90
15355;DHT22;7777;52.254;9.618;2023-05-07T16:35:52;14.80;99.90
15355;DHT22;7777;52.254;9.618;2023-05-07T16:38:18;14.90;99.90
15355;DHT22;7777;52.254;9.618;2023-05-07T16:40:44;14.90;99.90
15355;DHT22;7777;52.254;9.618;2023-05-07T16:43:09;14.90;99.90
15355;DHT22;7777;52.254;9.618;2023-05-07T16:45:35;14.80;99.90
15355;DHT22;7777;52.254;9.618;2023-05-07T16:48:01;14.90;99.90
15355;DHT22;7777;52.254;9.618;2023-05-07T16:50:37;14.80;99.90
15355;DHT22;7777;52.254;9.618;2023-05-07T16:53:04;14.70;99.90
15355;DHT22;7777;52.254;9.618;2023-05-07T16:55:31;14.60;99.90
15355;DHT22;7777;52.254;9.618;2023-05-07T16:58:03;14.50;99.90
15355;DHT22;7777;52.254;9.618;2023-05-07T17:00:48;14.50;99.90
15355;DHT22;7777;52.254;9.618;2023-05-07T17:03:14;14.50;99.90
15355;DHT22;7777;52.254;9.618;2023-05-07T17:05:40;14.40;99.90
15355;DHT22;7777;52.254;9.618;2023-05-07T17:08:06;14.40;99.90